createdAt,value
2023-04-18T00:00:53.836Z,11.90
2023-04-18T00:01:56.136Z,11.90
2023-04-18T00:02:59.261Z,11.90
2023-04-18T00:04:03.203Z,11.90
2023-04-18T00:05:07.547Z,11.90
2023-04-18T00:06:10.405Z,11.90
2023-04-18T00:07:16.974Z,11.90
2023-04-18T00:08:19.000Z,11.90
2023-04-18T00:09:21.153Z,11.90
2023-04-18T00:10:23.464Z,11.90
2023-04-18T00:11:25.539Z,11.90
2023-04-18T00:13:50.650Z,11.90
2023-04-18T00:14:52.594Z,11.90
2023-04-18T00:15:55.196Z,11.90
2023-04-18T00:16:57.382Z,11.90
2023-04-18T00:18:00.938Z,11.90
2023-04-18T00:19:04.545Z,11.90
2023-04-18T00:20:10.625Z,11.90
2023-04-18T00:21:13.925Z,11.90
2023-04-18T00:22:17.442Z,11.90
2023-04-18T00:23:21.616Z,12.00
2023-04-18T00:24:23.654Z,12.00
2023-04-18T00:25:25.869Z,11.90
2023-04-18T00:26:28.303Z,11.90
2023-04-18T00:27:32.155Z,11.90
2023-04-18T00:29:53.930Z,11.90
2023-04-18T00:31:31.724Z,11.90
2023-04-18T00:33:02.050Z,11.80
2023-04-18T00:34:14.814Z,11.80
2023-04-18T00:35:38.574Z,11.70
2023-04-18T00:36:40.607Z,11.80
2023-04-18T00:37:42.739Z,11.80
2023-04-18T00:38:44.780Z,11.80
2023-04-18T00:39:46.788Z,11.80
2023-04-18T00:40:48.814Z,11.80
2023-04-18T00:41:50.753Z,11.80
2023-04-18T00:42:52.839Z,11.80
2023-04-18T00:43:55.257Z,11.80
2023-04-18T00:44:57.278Z,11.80
2023-04-18T00:46:01.597Z,11.80
2023-04-18T00:47:04.104Z,11.80
2023-04-18T00:48:06.399Z,11.70
2023-04-18T00:49:08.645Z,11.80
2023-04-18T00:50:11.656Z,11.80
2023-04-18T00:51:14.236Z,11.80
2023-04-18T00:52:17.711Z,11.70
2023-04-18T00:53:19.997Z,11.70
2023-04-18T00:54:22.702Z,11.70
2023-04-18T00:55:25.117Z,11.70
2023-04-18T00:56:27.559Z,11.70
2023-04-18T00:57:30.998Z,11.70
2023-04-18T00:58:33.068Z,11.70
2023-04-18T00:59:35.602Z,11.80
2023-04-18T01:00:37.952Z,11.80
2023-04-18T01:01:40.459Z,11.70
2023-04-18T01:02:42.919Z,11.70
2023-04-18T01:03:45.488Z,11.80
2023-04-18T01:04:50.320Z,11.70
2023-04-18T01:05:54.767Z,11.80
2023-04-18T01:06:56.832Z,11.70
2023-04-18T01:08:01.318Z,11.80
2023-04-18T01:09:05.402Z,11.70
2023-04-18T01:10:08.529Z,11.80
2023-04-18T01:11:10.554Z,11.70
2023-04-18T01:13:00.386Z,11.70
2023-04-18T01:14:07.011Z,11.80
2023-04-18T01:15:11.812Z,11.80
2023-04-18T01:16:13.740Z,11.80
2023-04-18T01:17:17.542Z,11.80
2023-04-18T01:18:20.860Z,11.80
2023-04-18T01:19:23.293Z,11.80
2023-04-18T01:20:26.477Z,11.80
2023-04-18T01:21:33.933Z,11.80
2023-04-18T01:22:35.989Z,11.90
2023-04-18T01:23:38.239Z,11.90
2023-04-18T01:24:42.154Z,11.90
2023-04-18T01:25:46.089Z,11.90
2023-04-18T01:26:48.259Z,11.90
2023-04-18T01:27:51.667Z,11.90
2023-04-18T01:28:53.654Z,11.90
2023-04-18T01:29:55.769Z,11.90
2023-04-18T01:30:57.766Z,11.80
2023-04-18T01:31:59.915Z,11.80
2023-04-18T01:33:03.480Z,11.80
2023-04-18T01:34:06.509Z,11.80
2023-04-18T01:35:08.913Z,11.80
2023-04-18T01:36:11.017Z,11.80
2023-04-18T01:37:13.124Z,11.80
2023-04-18T01:38:15.670Z,11.90
2023-04-18T01:39:18.531Z,11.90
2023-04-18T01:40:24.185Z,11.80
2023-04-18T01:41:27.322Z,11.90
2023-04-18T01:42:30.285Z,11.90
2023-04-18T01:44:24.933Z,11.90
2023-04-18T01:45:27.276Z,11.90
2023-04-18T01:46:29.437Z,11.90
2023-04-18T01:47:31.577Z,12.00
2023-04-18T01:48:33.657Z,12.00
2023-04-18T01:49:35.641Z,12.00
2023-04-18T01:50:37.672Z,12.00
2023-04-18T01:51:40.003Z,12.00
2023-04-18T01:52:41.986Z,12.00
2023-04-18T01:53:44.161Z,12.00
2023-04-18T01:54:46.189Z,12.00
2023-04-18T01:55:50.460Z,12.00
2023-04-18T01:56:52.483Z,11.90
2023-04-18T01:57:54.629Z,11.90
2023-04-18T01:58:56.732Z,11.90
2023-04-18T01:59:58.781Z,11.90
2023-04-18T02:01:00.914Z,11.90
2023-04-18T02:02:03.070Z,11.90
2023-04-18T02:03:05.366Z,11.90
2023-04-18T02:04:07.606Z,11.90
2023-04-18T02:05:10.972Z,11.90
2023-04-18T02:06:14.184Z,11.90
2023-04-18T02:07:16.199Z,11.90
2023-04-18T02:08:18.752Z,11.90
2023-04-18T02:09:21.151Z,11.90
2023-04-18T02:10:24.485Z,11.90
2023-04-18T02:11:26.613Z,11.90
2023-04-18T02:12:28.666Z,11.90
2023-04-18T02:13:31.047Z,11.80
2023-04-18T02:14:35.412Z,11.80
2023-04-18T02:15:37.564Z,11.80
2023-04-18T02:16:40.689Z,11.80
2023-04-18T02:17:42.846Z,11.70
2023-04-18T02:18:45.511Z,11.70
2023-04-18T02:19:54.824Z,11.80
2023-04-18T02:20:56.914Z,11.70
2023-04-18T02:21:59.084Z,11.80
2023-04-18T02:23:01.765Z,11.80
2023-04-18T02:24:05.170Z,11.80
2023-04-18T02:25:07.742Z,11.80
2023-04-18T02:26:09.835Z,11.70
2023-04-18T02:27:12.023Z,11.80
2023-04-18T02:28:14.115Z,11.70
2023-04-18T02:29:48.737Z,11.70
2023-04-18T02:30:50.810Z,11.80
2023-04-18T02:31:52.889Z,11.80
2023-04-18T02:32:57.302Z,11.80
2023-04-18T02:34:07.205Z,11.80
2023-04-18T02:35:10.278Z,11.80
2023-04-18T02:36:15.415Z,11.80
2023-04-18T02:37:17.786Z,11.80
2023-04-18T02:38:19.848Z,11.80
2023-04-18T02:39:21.850Z,11.80
2023-04-18T02:40:25.126Z,11.80
2023-04-18T02:41:27.190Z,11.80
2023-04-18T02:42:29.289Z,11.80
2023-04-18T02:43:31.792Z,11.80
2023-04-18T02:44:33.997Z,11.80
2023-04-18T02:45:36.149Z,11.80
2023-04-18T02:46:38.257Z,11.80
2023-04-18T02:47:54.265Z,11.80
2023-04-18T02:48:57.900Z,11.80
2023-04-18T02:50:00.396Z,11.80
2023-04-18T02:51:06.485Z,11.80
2023-04-18T02:54:47.958Z,11.90
2023-04-18T02:55:54.388Z,11.90
2023-04-18T02:57:01.376Z,11.90
2023-04-18T02:58:17.462Z,11.80
2023-04-18T02:59:25.722Z,11.90
2023-04-18T03:00:53.531Z,11.90
2023-04-18T03:02:25.160Z,11.80
2023-04-18T03:03:32.203Z,11.80
2023-04-18T03:04:53.910Z,11.80
2023-04-18T03:05:55.984Z,11.90
2023-04-18T03:06:59.320Z,11.90
2023-04-18T03:08:02.530Z,11.80
2023-04-18T03:09:05.409Z,11.80
2023-04-18T03:10:10.666Z,11.90
2023-04-18T03:11:13.939Z,11.80
2023-04-18T03:12:16.294Z,11.70
2023-04-18T03:13:18.329Z,11.70
2023-04-18T03:14:20.753Z,11.60
2023-04-18T03:15:31.367Z,11.60
2023-04-18T03:16:34.102Z,11.60
2023-04-18T03:17:37.631Z,11.60
2023-04-18T03:18:40.764Z,11.50
2023-04-18T03:19:43.212Z,11.50
2023-04-18T03:20:48.252Z,11.50
2023-04-18T03:21:51.633Z,11.50
2023-04-18T03:22:53.695Z,11.40
2023-04-18T03:23:59.738Z,11.50
2023-04-18T03:25:14.224Z,11.50
2023-04-18T03:26:20.801Z,11.50
2023-04-18T03:27:22.825Z,11.50
2023-04-18T03:28:24.889Z,11.40
2023-04-18T03:29:26.886Z,11.40
2023-04-18T03:30:28.961Z,11.40
2023-04-18T03:31:33.566Z,11.40
2023-04-18T03:32:36.551Z,11.30
2023-04-18T03:33:39.341Z,11.30
2023-04-18T03:34:45.105Z,11.30
2023-04-18T03:35:47.208Z,11.30
2023-04-18T03:36:52.370Z,11.30
2023-04-18T03:37:54.440Z,11.30
2023-04-18T03:39:02.758Z,11.30
2023-04-18T03:40:05.645Z,11.30
2023-04-18T03:41:07.790Z,11.30
2023-04-18T03:42:12.052Z,11.20
2023-04-18T03:43:15.435Z,11.30
2023-04-18T03:44:17.612Z,11.20
2023-04-18T03:45:20.597Z,11.20
2023-04-18T03:46:24.672Z,11.20
2023-04-18T03:47:31.080Z,11.30
2023-04-18T03:48:37.315Z,11.20
2023-04-18T03:49:43.817Z,11.20
2023-04-18T03:50:46.314Z,11.20
2023-04-18T03:51:48.513Z,11.20
2023-04-18T03:52:50.744Z,11.20
2023-04-18T03:53:53.515Z,11.20
2023-04-18T03:54:55.835Z,11.20
2023-04-18T03:56:00.975Z,11.20
2023-04-18T03:57:17.367Z,11.10
2023-04-18T03:58:23.731Z,11.10
2023-04-18T03:59:26.844Z,11.10
2023-04-18T04:00:30.153Z,11.00
2023-04-18T04:01:41.490Z,11.00
2023-04-18T04:02:43.948Z,11.00
2023-04-18T04:03:52.675Z,11.00
2023-04-18T04:04:55.897Z,11.10
2023-04-18T04:05:58.333Z,11.10
2023-04-18T04:07:01.006Z,11.10
2023-04-18T04:08:03.251Z,11.10
2023-04-18T04:09:05.547Z,11.10
2023-04-18T04:10:08.611Z,11.10
2023-04-18T04:11:10.692Z,11.20
2023-04-18T04:12:13.219Z,11.20
2023-04-18T04:13:15.509Z,11.20
2023-04-18T04:14:18.172Z,11.20
2023-04-18T04:15:21.726Z,11.20
2023-04-18T04:16:40.582Z,11.20
2023-04-18T04:17:43.402Z,11.20
2023-04-18T04:18:45.951Z,11.20
2023-04-18T04:19:50.421Z,11.20
2023-04-18T04:20:54.550Z,11.20
2023-04-18T04:22:10.013Z,11.20
2023-04-18T04:23:12.159Z,11.20
2023-04-18T04:24:15.467Z,11.20
2023-04-18T04:25:23.976Z,11.20
2023-04-18T04:26:28.525Z,11.20
2023-04-18T04:27:39.078Z,11.20
2023-04-18T04:28:46.534Z,11.30
2023-04-18T04:29:52.357Z,11.20
2023-04-18T04:30:55.777Z,11.20
2023-04-18T04:31:59.279Z,11.30
2023-04-18T04:33:09.177Z,11.30
2023-04-18T04:34:11.554Z,11.30
2023-04-18T04:35:15.506Z,11.30
2023-04-18T04:36:19.520Z,11.40
2023-04-18T04:37:23.991Z,11.40
2023-04-18T04:38:38.480Z,11.40
2023-04-18T04:39:40.695Z,11.30
2023-04-18T04:41:01.276Z,11.30
2023-04-18T04:42:04.722Z,11.30
2023-04-18T04:43:16.537Z,11.30
2023-04-18T04:44:22.082Z,11.30
2023-04-18T04:45:24.683Z,11.30
2023-04-18T04:46:30.396Z,11.40
2023-04-18T04:47:34.006Z,11.30
2023-04-18T04:48:36.086Z,11.40
2023-04-18T04:49:39.043Z,11.40
2023-04-18T04:50:42.016Z,11.40
2023-04-18T04:51:47.080Z,11.40
2023-04-18T04:52:49.925Z,11.40
2023-04-18T04:53:52.091Z,11.50
2023-04-18T04:54:54.435Z,11.50
2023-04-18T04:55:59.328Z,11.50
2023-04-18T04:57:02.303Z,11.60
2023-04-18T04:58:04.391Z,11.60
2023-04-18T04:59:26.678Z,11.60
2023-04-18T05:00:29.447Z,11.60
2023-04-18T05:01:31.516Z,11.60
2023-04-18T05:02:34.391Z,11.60
2023-04-18T05:03:36.844Z,11.70
2023-04-18T05:04:39.813Z,11.70
2023-04-18T05:05:42.042Z,11.70
2023-04-18T05:06:45.583Z,11.70
2023-04-18T05:07:47.747Z,11.70
2023-04-18T05:08:50.807Z,11.80
2023-04-18T05:09:53.601Z,11.70
2023-04-18T05:10:55.805Z,11.80
2023-04-18T05:11:57.850Z,11.80
2023-04-18T05:12:59.945Z,11.80
2023-04-18T05:14:01.903Z,11.80
2023-04-18T05:15:04.318Z,11.80
2023-04-18T05:16:07.315Z,11.80
2023-04-18T05:17:09.343Z,11.80
2023-04-18T05:18:11.557Z,11.80
2023-04-18T05:19:13.663Z,11.90
2023-04-18T05:20:18.559Z,11.90
2023-04-18T05:21:20.628Z,12.00
2023-04-18T05:22:22.689Z,12.00
2023-04-18T05:23:24.701Z,12.00
2023-04-18T05:24:26.837Z,12.10
2023-04-18T05:25:30.059Z,12.10
2023-04-18T05:26:32.189Z,12.10
2023-04-18T05:27:34.199Z,12.20
2023-04-18T05:28:36.155Z,12.20
2023-04-18T05:29:38.584Z,12.30
2023-04-18T05:30:40.949Z,12.30
2023-04-18T05:31:42.966Z,12.30
2023-04-18T05:32:45.001Z,12.40
2023-04-18T05:33:47.098Z,12.50
2023-04-18T05:34:49.248Z,12.50
2023-04-18T05:35:51.364Z,12.60
2023-04-18T05:36:53.477Z,12.70
2023-04-18T05:37:55.564Z,12.80
2023-04-18T05:38:57.576Z,12.80
2023-04-18T05:40:00.716Z,12.90
2023-04-18T05:41:03.167Z,13.00
2023-04-18T05:42:05.255Z,13.00
2023-04-18T05:43:08.407Z,13.10
2023-04-18T05:44:10.571Z,13.20
2023-04-18T05:45:12.637Z,13.20
2023-04-18T05:46:14.750Z,13.30
2023-04-18T05:47:17.658Z,13.40
2023-04-18T05:48:19.715Z,13.40
2023-04-18T05:49:21.904Z,13.60
2023-04-18T05:50:24.151Z,13.60
2023-04-18T05:51:26.820Z,13.60
2023-04-18T05:52:28.899Z,13.70
2023-04-18T05:53:30.936Z,13.70
2023-04-18T05:54:33.014Z,13.80
2023-04-18T05:55:35.187Z,13.80
2023-04-18T05:56:37.361Z,13.90
2023-04-18T05:57:40.602Z,13.90
2023-04-18T05:58:42.650Z,13.90
2023-04-18T05:59:44.965Z,14.00
2023-04-18T06:00:48.334Z,14.00
2023-04-18T06:01:50.480Z,14.00
2023-04-18T06:02:52.786Z,14.00
2023-04-18T06:03:55.924Z,14.10
2023-04-18T06:04:58.355Z,14.00
2023-04-18T06:06:00.601Z,14.10
2023-04-18T06:07:02.602Z,14.00
2023-04-18T06:08:04.652Z,14.00
2023-04-18T06:09:06.784Z,14.00
2023-04-18T06:10:13.272Z,13.90
2023-04-18T06:11:15.697Z,13.90
2023-04-18T06:12:17.666Z,13.90
2023-04-18T06:13:19.650Z,13.90
2023-04-18T06:14:21.668Z,13.80
2023-04-18T06:15:24.117Z,13.80
2023-04-18T06:16:26.255Z,13.80
2023-04-18T06:17:28.429Z,13.80
2023-04-18T06:18:30.550Z,13.70
2023-04-18T06:19:32.506Z,13.70
2023-04-18T06:20:35.011Z,13.60
2023-04-18T06:21:36.980Z,13.60
2023-04-18T06:22:38.989Z,13.60
2023-04-18T06:23:41.100Z,13.60
2023-04-18T06:24:43.131Z,13.50
2023-04-18T06:25:45.349Z,13.50
2023-04-18T06:26:47.404Z,13.50
2023-04-18T06:27:49.546Z,13.50
2023-04-18T06:28:51.551Z,13.50
2023-04-18T06:29:53.820Z,13.40
2023-04-18T06:30:56.181Z,13.40
2023-04-18T06:31:58.310Z,13.40
2023-04-18T06:33:00.833Z,13.40
2023-04-18T06:34:02.890Z,13.40
2023-04-18T06:35:05.272Z,13.40
2023-04-18T06:36:07.818Z,13.40
2023-04-18T06:37:09.956Z,13.40
2023-04-18T06:38:12.176Z,13.40
2023-04-18T06:39:14.130Z,13.40
2023-04-18T06:40:16.287Z,13.40
2023-04-18T06:41:18.432Z,13.40
2023-04-18T06:42:22.365Z,13.40
2023-04-18T06:43:24.927Z,13.40
2023-04-18T06:44:26.995Z,13.40
2023-04-18T06:45:31.319Z,13.40
2023-04-18T06:46:33.727Z,13.40
2023-04-18T06:47:36.267Z,13.40
2023-04-18T06:48:38.232Z,13.50
2023-04-18T06:49:40.575Z,13.50
2023-04-18T06:50:43.871Z,13.50
2023-04-18T06:51:45.944Z,13.50
2023-04-18T06:52:47.983Z,13.50
2023-04-18T06:53:52.882Z,13.60
2023-04-18T06:54:54.991Z,13.60
2023-04-18T06:55:57.153Z,13.60
2023-04-18T06:56:59.765Z,13.60
2023-04-18T06:58:01.881Z,13.60
2023-04-18T06:59:03.928Z,13.60
2023-04-18T07:00:06.711Z,13.60
2023-04-18T07:01:08.712Z,13.70
2023-04-18T07:02:11.413Z,13.70
2023-04-18T07:03:13.868Z,13.80
2023-04-18T07:04:16.256Z,13.80
2023-04-18T07:05:18.573Z,13.80
2023-04-18T07:06:20.585Z,13.90
2023-04-18T07:07:22.799Z,13.90
2023-04-18T07:08:24.800Z,13.90
2023-04-18T07:09:26.896Z,14.00
2023-04-18T07:10:29.619Z,14.00
2023-04-18T07:11:31.657Z,14.00
2023-04-18T07:12:34.024Z,14.10
2023-04-18T07:13:36.124Z,14.10
2023-04-18T07:14:39.183Z,14.10
2023-04-18T07:15:41.874Z,14.10
2023-04-18T07:16:44.015Z,14.20
2023-04-18T07:17:46.136Z,14.30
2023-04-18T07:18:48.247Z,14.30
2023-04-18T07:19:50.308Z,14.30
2023-04-18T07:20:52.321Z,14.30
2023-04-18T07:21:55.968Z,14.40
2023-04-18T07:22:58.012Z,14.30
2023-04-18T07:24:00.198Z,14.40
2023-04-18T07:25:02.129Z,14.50
2023-04-18T07:26:05.873Z,14.50
2023-04-18T07:27:09.572Z,14.50
2023-04-18T07:28:11.613Z,14.50
2023-04-18T07:29:13.657Z,14.60
2023-04-18T07:30:34.181Z,14.50
2023-04-18T07:31:36.526Z,14.50
2023-04-18T07:32:38.641Z,14.60
2023-04-18T07:33:40.797Z,14.60
2023-04-18T07:34:42.931Z,14.70
2023-04-18T07:35:46.821Z,14.70
2023-04-18T07:36:49.010Z,14.70
2023-04-18T07:37:52.654Z,14.80
2023-04-18T07:38:54.649Z,14.80
2023-04-18T07:39:56.626Z,14.80
2023-04-18T07:41:00.052Z,14.80
2023-04-18T07:42:05.925Z,14.80
2023-04-18T07:43:08.070Z,14.90
2023-04-18T07:44:10.110Z,14.90
2023-04-18T07:45:12.271Z,14.90
2023-04-18T07:46:14.693Z,14.90
2023-04-18T07:47:17.235Z,14.90
2023-04-18T07:48:22.210Z,14.90
2023-04-18T07:49:24.445Z,15.00
2023-04-18T07:50:27.054Z,15.00
2023-04-18T07:51:31.866Z,15.00
2023-04-18T07:52:34.348Z,15.00
2023-04-18T07:53:36.768Z,15.10
2023-04-18T07:54:39.143Z,15.10
2023-04-18T07:55:41.468Z,15.20
2023-04-18T07:56:43.742Z,15.20
2023-04-18T07:57:50.318Z,15.30
2023-04-18T07:58:52.941Z,15.30
2023-04-18T07:59:55.119Z,15.40
2023-04-18T08:00:57.220Z,15.40
2023-04-18T08:01:59.392Z,15.40
2023-04-18T08:03:01.554Z,15.40
2023-04-18T08:04:04.302Z,15.50
2023-04-18T08:05:07.156Z,15.60
2023-04-18T08:06:13.165Z,15.60
2023-04-18T08:07:15.350Z,15.60
2023-04-18T08:08:17.524Z,15.70
2023-04-18T08:09:20.735Z,15.70
2023-04-18T08:10:23.882Z,15.60
2023-04-18T08:11:26.341Z,15.60
2023-04-18T08:12:28.482Z,15.60
2023-04-18T08:13:30.526Z,15.60
2023-04-18T08:14:32.629Z,15.80
2023-04-18T08:15:34.653Z,15.90
2023-04-18T08:16:37.496Z,15.90
2023-04-18T08:17:39.675Z,16.00
2023-04-18T08:18:41.767Z,15.90
2023-04-18T08:19:45.101Z,15.90
2023-04-18T08:20:47.274Z,15.80
2023-04-18T08:21:51.814Z,15.70
2023-04-18T08:23:06.210Z,15.70
2023-04-18T08:24:09.864Z,15.80
2023-04-18T08:25:12.387Z,15.80
2023-04-18T08:26:14.412Z,15.90
2023-04-18T08:27:16.432Z,15.90
2023-04-18T08:28:18.805Z,15.90
2023-04-18T08:29:20.892Z,15.80
2023-04-18T08:30:22.863Z,15.80
2023-04-18T08:31:25.010Z,15.80
2023-04-18T08:32:27.255Z,15.60
2023-04-18T08:33:29.684Z,15.60
2023-04-18T08:34:33.871Z,15.50
2023-04-18T08:35:35.902Z,15.60
2023-04-18T08:36:37.957Z,15.60
2023-04-18T08:37:40.081Z,15.40
2023-04-18T08:38:42.231Z,15.50
2023-04-18T08:39:45.026Z,15.50
2023-04-18T08:40:47.353Z,15.70
2023-04-18T08:41:57.091Z,15.70
2023-04-18T08:43:05.149Z,15.60
2023-04-18T08:44:07.756Z,15.60
2023-04-18T08:45:12.484Z,15.60
2023-04-18T08:46:15.076Z,15.60
2023-04-18T08:47:17.148Z,15.50
2023-04-18T08:48:19.125Z,15.40
2023-04-18T08:49:24.247Z,15.50
2023-04-18T08:50:27.010Z,15.80
2023-04-18T08:51:33.397Z,15.90
2023-04-18T08:52:37.865Z,16.00
2023-04-18T08:53:40.173Z,16.10
2023-04-18T08:54:43.178Z,16.30
2023-04-18T08:55:46.946Z,16.50
2023-04-18T08:57:07.542Z,16.40
2023-04-18T08:58:12.532Z,16.70
2023-04-18T08:59:14.916Z,16.90
2023-04-18T09:00:18.315Z,17.00
2023-04-18T09:01:21.495Z,17.00
2023-04-18T09:02:42.829Z,17.20
2023-04-18T09:03:45.512Z,17.30
2023-04-18T09:04:56.475Z,17.50
2023-04-18T09:06:13.936Z,17.40
2023-04-18T09:07:23.300Z,17.20
2023-04-18T09:08:25.446Z,17.00
2023-04-18T09:09:27.742Z,16.80
2023-04-18T09:10:36.615Z,16.80
2023-04-18T09:11:38.766Z,16.80
2023-04-18T09:12:50.103Z,16.70
2023-04-18T09:13:53.396Z,16.80
2023-04-18T09:14:58.002Z,16.80
2023-04-18T09:16:00.954Z,16.80
2023-04-18T09:17:05.212Z,16.70
2023-04-18T09:18:10.552Z,16.70
2023-04-18T09:19:18.593Z,16.60
2023-04-18T09:20:30.791Z,16.50
2023-04-18T09:21:33.016Z,16.40
2023-04-18T09:22:52.386Z,16.20
2023-04-18T09:24:18.208Z,16.20
2023-04-18T09:25:35.027Z,16.10
2023-04-18T09:26:37.765Z,16.00
2023-04-18T09:27:39.940Z,16.00
2023-04-18T09:28:42.002Z,16.00
2023-04-18T09:29:57.989Z,15.90
2023-04-18T09:31:10.241Z,15.80
2023-04-18T09:32:24.086Z,15.70
2023-04-18T09:33:33.587Z,15.60
2023-04-18T09:34:42.622Z,15.40
2023-04-18T09:35:44.692Z,15.40
2023-04-18T09:36:46.810Z,15.50
2023-04-18T09:37:51.396Z,15.50
2023-04-18T09:38:56.719Z,15.50
2023-04-18T09:39:59.313Z,15.50
2023-04-18T09:41:09.306Z,15.40
2023-04-18T09:42:14.203Z,15.30
2023-04-18T09:43:21.042Z,15.20
2023-04-18T09:44:23.100Z,15.20
2023-04-18T09:45:25.655Z,15.00
2023-04-18T09:46:28.478Z,15.00
2023-04-18T09:47:31.361Z,14.90
2023-04-18T09:48:33.390Z,14.90
2023-04-18T09:49:35.537Z,14.80
2023-04-18T09:50:40.213Z,14.80
2023-04-18T09:51:44.564Z,14.80
2023-04-18T09:52:47.773Z,14.80
2023-04-18T09:53:51.057Z,14.90
2023-04-18T09:55:00.324Z,14.90
2023-04-18T09:56:04.135Z,15.00
2023-04-18T09:57:11.177Z,15.00
2023-04-18T09:58:14.874Z,15.00
2023-04-18T09:59:28.990Z,15.00
2023-04-18T10:00:31.586Z,15.00
2023-04-18T10:01:34.848Z,15.10
2023-04-18T10:03:02.823Z,15.10
2023-04-18T10:04:06.881Z,15.20
2023-04-18T10:05:09.661Z,15.30
2023-04-18T10:06:14.917Z,15.40
2023-04-18T10:07:17.613Z,15.40
2023-04-18T10:08:19.751Z,15.50
2023-04-18T10:09:22.983Z,15.60
2023-04-18T10:10:25.392Z,15.60
2023-04-18T10:11:27.588Z,15.70
2023-04-18T10:12:29.927Z,15.70
2023-04-18T10:13:34.434Z,15.70
2023-04-18T10:14:37.800Z,15.70
2023-04-18T10:15:41.744Z,15.70
2023-04-18T10:16:45.789Z,15.80
2023-04-18T10:18:04.352Z,15.90
2023-04-18T10:19:25.512Z,16.00
2023-04-18T10:20:30.153Z,16.10
2023-04-18T10:21:32.157Z,16.00
2023-04-18T10:22:35.520Z,16.00
2023-04-18T10:23:39.622Z,15.80
2023-04-18T10:24:53.606Z,15.80
2023-04-18T10:25:55.943Z,15.70
2023-04-18T10:26:58.331Z,15.70
2023-04-18T10:28:02.372Z,15.70
2023-04-18T10:29:04.356Z,15.60
2023-04-18T10:30:08.963Z,15.70
2023-04-18T10:31:11.810Z,15.70
2023-04-18T10:32:13.890Z,15.70
2023-04-18T10:33:33.686Z,15.80
2023-04-18T10:34:37.888Z,15.80
2023-04-18T10:35:59.909Z,15.90
2023-04-18T10:38:06.418Z,15.70
2023-04-18T10:39:25.676Z,15.60
2023-04-18T10:40:34.739Z,15.60
2023-04-18T10:41:50.590Z,15.50
2023-04-18T10:42:52.967Z,15.60
2023-04-18T10:44:09.822Z,15.50
2023-04-18T10:45:22.558Z,15.50
2023-04-18T10:46:31.736Z,15.50
2023-04-18T10:47:35.013Z,15.60
2023-04-18T10:48:39.236Z,15.60
2023-04-18T10:49:54.009Z,15.60
2023-04-18T10:51:18.874Z,15.70
2023-04-18T10:52:20.931Z,15.90
2023-04-18T10:53:23.055Z,16.00
2023-04-18T10:54:33.290Z,16.00
2023-04-18T10:55:36.761Z,16.10
2023-04-18T10:56:39.741Z,16.00
2023-04-18T10:57:50.497Z,16.00
2023-04-18T10:58:53.381Z,16.00
2023-04-18T10:59:56.544Z,16.10
2023-04-18T11:01:00.184Z,16.20
2023-04-18T11:02:25.531Z,16.00
2023-04-18T11:03:37.776Z,15.90
2023-04-18T11:04:40.872Z,15.90
2023-04-18T11:05:43.659Z,16.00
2023-04-18T11:06:50.366Z,15.90
2023-04-18T11:07:52.778Z,15.90
2023-04-18T11:09:14.161Z,15.90
2023-04-18T11:10:25.476Z,15.80
2023-04-18T11:11:27.541Z,15.80
2023-04-18T11:12:34.530Z,15.70
2023-04-18T11:13:38.122Z,15.70
2023-04-18T11:14:45.285Z,15.70
2023-04-18T11:15:47.311Z,15.70
2023-04-18T11:16:49.448Z,15.80
2023-04-18T11:17:58.076Z,15.90
2023-04-18T11:19:00.312Z,15.90
2023-04-18T11:20:12.855Z,15.90
2023-04-18T11:21:15.044Z,15.90
2023-04-18T11:22:18.081Z,16.00
2023-04-18T11:23:24.895Z,16.10
2023-04-18T11:24:27.002Z,16.20
2023-04-18T11:25:31.977Z,16.20
2023-04-18T11:26:38.549Z,16.30
2023-04-18T11:27:47.902Z,16.40
2023-04-18T11:28:56.915Z,16.50
2023-04-18T11:29:59.019Z,16.70
2023-04-18T11:31:02.898Z,16.70
2023-04-18T11:32:09.149Z,16.80
2023-04-18T11:33:12.219Z,16.80
2023-04-18T11:34:14.716Z,16.90
2023-04-18T11:35:17.507Z,17.00
2023-04-18T11:36:19.558Z,17.20
2023-04-18T11:37:22.100Z,17.40
2023-04-18T11:38:31.254Z,17.60
2023-04-18T11:39:43.319Z,17.70
2023-04-18T11:40:49.445Z,17.90
2023-04-18T11:41:51.618Z,18.20
2023-04-18T11:42:54.610Z,18.40
2023-04-18T11:43:56.663Z,18.40
2023-04-18T11:44:58.773Z,18.50
2023-04-18T11:46:01.115Z,18.70
2023-04-18T11:47:03.102Z,18.80
2023-04-18T11:48:05.278Z,19.10
2023-04-18T11:49:07.417Z,19.30
2023-04-18T11:50:12.068Z,19.40
2023-04-18T11:51:34.451Z,19.60
2023-04-18T11:52:37.331Z,19.60
2023-04-18T11:53:39.678Z,19.60
2023-04-18T11:54:43.290Z,19.60
2023-04-18T11:55:56.994Z,19.60
2023-04-18T11:56:59.068Z,19.50
2023-04-18T11:58:02.278Z,19.60
2023-04-18T11:59:13.410Z,19.50
2023-04-18T12:00:16.300Z,19.50
2023-04-18T12:01:22.505Z,19.50
2023-04-18T12:02:26.751Z,19.20
2023-04-18T12:03:29.830Z,18.90
2023-04-18T12:04:53.822Z,18.70
2023-04-18T12:06:03.510Z,18.60
2023-04-18T12:07:05.773Z,18.60
2023-04-18T12:08:07.741Z,18.50
2023-04-18T12:09:14.522Z,18.40
2023-04-18T12:10:22.623Z,18.40
2023-04-18T12:11:24.708Z,18.40
2023-04-18T12:12:26.728Z,18.50
2023-04-18T12:13:32.844Z,18.40
2023-04-18T12:14:36.213Z,18.40
2023-04-18T12:15:44.650Z,18.30
2023-04-18T12:16:48.561Z,18.30
2023-04-18T12:17:53.682Z,18.20
2023-04-18T12:19:02.199Z,18.20
2023-04-18T12:20:06.266Z,18.20
2023-04-18T12:21:08.809Z,18.20
2023-04-18T12:22:10.871Z,18.20
2023-04-18T12:23:35.793Z,18.10
2023-04-18T12:24:38.047Z,18.10
2023-04-18T12:25:40.173Z,18.10
2023-04-18T12:26:46.170Z,18.10
2023-04-18T12:27:52.358Z,18.20
2023-04-18T12:28:54.375Z,18.00
2023-04-18T12:29:56.595Z,17.90
2023-04-18T12:30:59.380Z,17.70
2023-04-18T12:32:01.728Z,17.70
2023-04-18T12:33:04.839Z,17.60
2023-04-18T12:34:06.944Z,17.50
2023-04-18T12:35:09.394Z,17.60
2023-04-18T12:36:11.378Z,17.60
2023-04-18T12:37:13.392Z,17.50
2023-04-18T12:38:15.807Z,17.60
2023-04-18T12:39:17.772Z,17.50
2023-04-18T12:40:21.993Z,17.40
2023-04-18T12:41:24.075Z,17.30
2023-04-18T12:42:26.126Z,17.30
2023-04-18T12:43:28.236Z,17.20
2023-04-18T12:44:30.304Z,17.00
2023-04-18T12:45:32.416Z,16.90
2023-04-18T12:46:34.533Z,16.70
2023-04-18T12:47:38.645Z,16.50
2023-04-18T12:48:40.856Z,16.20
2023-04-18T12:49:42.865Z,16.10
2023-04-18T12:50:44.841Z,15.90
2023-04-18T12:51:46.802Z,15.90
2023-04-18T12:52:49.173Z,15.80
2023-04-18T12:53:51.194Z,15.70
2023-04-18T12:54:53.291Z,15.70
2023-04-18T12:55:55.448Z,15.70
2023-04-18T12:56:57.420Z,15.60
2023-04-18T12:57:59.719Z,15.60
2023-04-18T12:59:01.770Z,15.50
2023-04-18T13:00:13.048Z,15.50
2023-04-18T13:01:15.366Z,15.50
2023-04-18T13:02:17.541Z,15.40
2023-04-18T13:03:22.539Z,15.50
2023-04-18T13:04:24.999Z,15.50
2023-04-18T13:05:32.454Z,15.60
2023-04-18T13:06:35.719Z,15.60
2023-04-18T13:07:38.092Z,15.70
2023-04-18T13:08:40.295Z,15.80
2023-04-18T13:09:42.326Z,15.90
2023-04-18T13:10:44.480Z,16.00
2023-04-18T13:11:48.932Z,16.00
2023-04-18T13:12:52.574Z,16.10
2023-04-18T13:13:55.408Z,16.10
2023-04-18T13:14:57.863Z,16.10
2023-04-18T13:15:59.930Z,16.20
2023-04-18T13:17:02.041Z,16.40
2023-04-18T13:18:06.330Z,16.40
2023-04-18T13:19:08.599Z,16.60
2023-04-18T13:20:12.590Z,16.80
2023-04-18T13:21:14.726Z,17.00
2023-04-18T13:22:20.840Z,17.20
2023-04-18T13:23:22.909Z,17.40
2023-04-18T13:24:25.081Z,17.50
2023-04-18T13:25:27.868Z,17.60
2023-04-18T13:26:30.110Z,17.90
2023-04-18T13:27:32.130Z,18.00
2023-04-18T13:28:34.223Z,18.00
2023-04-18T13:29:41.220Z,18.10
2023-04-18T13:30:43.169Z,18.30
2023-04-18T13:31:45.289Z,18.30
2023-04-18T13:32:47.380Z,18.30
2023-04-18T13:33:49.431Z,18.40
2023-04-18T13:34:51.606Z,18.30
2023-04-18T13:35:53.840Z,18.40
2023-04-18T13:36:56.740Z,18.40
2023-04-18T13:38:00.782Z,18.60
2023-04-18T13:39:04.659Z,18.90
2023-04-18T13:40:07.257Z,19.00
2023-04-18T13:41:12.706Z,19.10
2023-04-18T13:42:16.292Z,19.20
2023-04-18T13:43:18.500Z,19.40
2023-04-18T13:44:21.066Z,19.50
2023-04-18T13:45:23.155Z,19.50
2023-04-18T13:46:27.508Z,19.60
2023-04-18T13:47:30.397Z,19.60
2023-04-18T13:48:32.426Z,19.50
2023-04-18T13:49:36.107Z,19.60
2023-04-18T13:50:38.177Z,19.70
2023-04-18T13:51:40.341Z,19.70
2023-04-18T13:52:42.429Z,19.70
2023-04-18T13:53:44.469Z,19.70
2023-04-18T13:54:46.561Z,19.60
2023-04-18T13:55:48.574Z,19.50
2023-04-18T13:56:50.749Z,19.30